createdAt,value
2023-01-22T00:01:58.541Z,101615.86
2023-01-22T00:04:30.407Z,101612.91
2023-01-22T00:07:02.718Z,101612.09
2023-01-22T00:09:35.083Z,101615.00
2023-01-22T00:12:07.461Z,101609.80
2023-01-22T00:14:40.773Z,101612.70
2023-01-22T00:17:14.256Z,101615.36
2023-01-22T00:19:46.100Z,101615.08
2023-01-22T00:22:18.054Z,101617.11
2023-01-22T00:24:49.929Z,101618.70
2023-01-22T00:27:21.856Z,101621.53
2023-01-22T00:29:54.007Z,101619.83
2023-01-22T00:32:26.256Z,101620.64
2023-01-22T00:34:58.106Z,101628.55
2023-01-22T00:37:30.364Z,101628.81
2023-01-22T00:40:03.520Z,101632.67
2023-01-22T00:42:35.591Z,101631.77
2023-01-22T00:45:09.110Z,101632.23
2023-01-22T00:47:40.980Z,101634.84
2023-01-22T00:50:14.470Z,101635.92
2023-01-22T00:52:46.573Z,101640.50
2023-01-22T00:55:21.075Z,101640.80
2023-01-22T00:57:52.930Z,101643.39
2023-01-22T01:00:25.106Z,101644.29
2023-01-22T01:03:14.549Z,101646.30
2023-01-22T01:05:46.533Z,101647.25
2023-01-22T01:08:18.919Z,101651.83
2023-01-22T01:10:50.873Z,101650.30
2023-01-22T01:13:23.009Z,101653.24
2023-01-22T01:16:01.877Z,101650.02
2023-01-22T01:18:34.414Z,101652.44
2023-01-22T01:21:07.602Z,101656.39
2023-01-22T01:23:39.668Z,101657.86
2023-01-22T01:26:12.995Z,101658.05
2023-01-22T01:28:46.551Z,101661.41
2023-01-22T01:31:20.516Z,101661.28
2023-01-22T01:33:52.724Z,101658.44
2023-01-22T01:36:46.358Z,101665.91
2023-01-22T01:39:17.821Z,101668.71
2023-01-22T01:41:50.473Z,101672.02
2023-01-22T01:44:24.465Z,101675.58
2023-01-22T01:46:55.576Z,101682.86
2023-01-22T01:49:31.586Z,101681.27
2023-01-22T01:52:05.320Z,101685.73
2023-01-22T01:54:37.241Z,101687.85
2023-01-22T01:57:11.697Z,101687.36
2023-01-22T01:59:44.387Z,101688.69
2023-01-22T02:02:16.329Z,101690.48
2023-01-22T02:04:48.143Z,101694.81
2023-01-22T02:07:20.593Z,101696.74
2023-01-22T02:09:52.445Z,101697.19
2023-01-22T02:12:24.471Z,101698.42
2023-01-22T02:14:56.855Z,101696.80
2023-01-22T02:17:28.720Z,101692.61
2023-01-22T02:20:00.579Z,101696.36
2023-01-22T02:22:34.109Z,101696.42
2023-01-22T02:25:06.605Z,101694.27
2023-01-22T02:27:38.998Z,101692.77
2023-01-22T02:30:13.023Z,101693.11
2023-01-22T02:32:45.108Z,101690.46
2023-01-22T02:35:17.695Z,101690.10
2023-01-22T02:37:49.749Z,101693.36
2023-01-22T02:40:21.923Z,101699.09
2023-01-22T02:42:53.998Z,101700.51
2023-01-22T02:45:26.098Z,101705.39
2023-01-22T02:47:58.119Z,101707.70
2023-01-22T02:50:30.244Z,101705.19
2023-01-22T02:53:02.062Z,101705.95
2023-01-22T02:55:34.193Z,101711.66
2023-01-22T02:58:06.270Z,101710.15
2023-01-22T03:00:38.181Z,101710.27
2023-01-22T03:03:15.482Z,101706.34
2023-01-22T03:05:53.631Z,101711.51
2023-01-22T03:08:26.864Z,101713.05
2023-01-22T03:11:01.649Z,101717.59
2023-01-22T03:13:51.103Z,101722.48
2023-01-22T03:16:41.157Z,101727.53
2023-01-22T03:19:30.197Z,101727.88
2023-01-22T03:22:02.083Z,101735.73
2023-01-22T03:24:34.142Z,101737.77
2023-01-22T03:27:06.421Z,101738.67
2023-01-22T03:29:39.334Z,101744.58
2023-01-22T03:32:11.362Z,101751.84
2023-01-22T03:34:43.491Z,101758.34
2023-01-22T03:37:15.434Z,101760.55
2023-01-22T03:39:47.237Z,101759.41
2023-01-22T03:42:19.100Z,101761.63
2023-01-22T03:44:50.968Z,101756.92
2023-01-22T03:47:22.966Z,101754.70
2023-01-22T03:49:55.025Z,101758.27
2023-01-22T03:52:26.982Z,101758.34
2023-01-22T03:54:58.790Z,101760.88
2023-01-22T03:57:31.041Z,101760.27
2023-01-22T04:00:07.154Z,101767.34
2023-01-22T04:02:39.098Z,101769.85
2023-01-22T04:05:11.669Z,101772.23
2023-01-22T04:07:43.881Z,101773.33
2023-01-22T04:10:15.963Z,101779.60
2023-01-22T04:12:47.992Z,101783.89
2023-01-22T04:15:19.917Z,101790.00
2023-01-22T04:17:51.716Z,101788.16
2023-01-22T04:20:23.567Z,101785.33
2023-01-22T04:22:55.544Z,101784.98
2023-01-22T04:25:27.376Z,101784.20
2023-01-22T04:27:59.191Z,101783.26
2023-01-22T04:30:31.395Z,101785.30
2023-01-22T04:33:03.272Z,101784.68
2023-01-22T04:35:35.710Z,101789.02
2023-01-22T04:38:09.789Z,101794.00
2023-01-22T04:40:40.171Z,101795.55
2023-01-22T04:43:12.928Z,101792.53
2023-01-22T04:45:45.031Z,101800.25
2023-01-22T04:48:16.941Z,101802.71
2023-01-22T04:50:48.905Z,101807.89
2023-01-22T04:53:20.747Z,101814.95
2023-01-22T04:55:52.594Z,101810.65
2023-01-22T04:58:24.315Z,101813.77
2023-01-22T05:00:58.203Z,101814.67
2023-01-22T05:03:30.360Z,101815.48
2023-01-22T05:06:05.343Z,101818.91
2023-01-22T05:08:37.105Z,101821.48
2023-01-22T05:11:09.060Z,101820.48
2023-01-22T05:13:40.811Z,101822.89
2023-01-22T05:16:13.079Z,101816.48
2023-01-22T05:18:44.996Z,101816.73
2023-01-22T05:21:16.930Z,101816.10
2023-01-22T05:23:48.684Z,101818.61
2023-01-22T05:26:21.592Z,101820.16
2023-01-22T05:28:53.568Z,101823.69
2023-01-22T05:31:25.625Z,101820.30
2023-01-22T05:33:57.446Z,101824.42
2023-01-22T05:36:29.288Z,101827.05
2023-01-22T05:39:01.141Z,101828.00
2023-01-22T05:41:32.921Z,101830.64
2023-01-22T05:44:05.758Z,101832.85
2023-01-22T05:46:38.117Z,101834.14
2023-01-22T05:49:10.329Z,101833.84
2023-01-22T05:51:42.381Z,101836.62
2023-01-22T05:54:14.243Z,101839.65
2023-01-22T05:56:46.016Z,101844.77
2023-01-22T05:59:19.126Z,101848.66
2023-01-22T06:01:51.015Z,101853.65
2023-01-22T06:04:22.763Z,101852.50
2023-01-22T06:06:54.596Z,101857.59
2023-01-22T06:09:26.978Z,101858.14
2023-01-22T06:11:58.759Z,101864.27
2023-01-22T06:14:30.551Z,101862.31
2023-01-22T06:17:02.598Z,101870.00
2023-01-22T06:19:34.748Z,101871.42
2023-01-22T06:22:06.866Z,101875.20
2023-01-22T06:24:39.036Z,101876.23
2023-01-22T06:27:10.856Z,101876.75
2023-01-22T06:29:42.633Z,101875.52
2023-01-22T06:32:14.566Z,101880.06
2023-01-22T06:34:46.370Z,101880.82
2023-01-22T06:37:18.295Z,101878.80
2023-01-22T06:39:50.184Z,101883.64
2023-01-22T06:42:22.250Z,101884.04
2023-01-22T06:44:54.101Z,101884.74
2023-01-22T06:47:26.062Z,101885.79
2023-01-22T06:49:59.152Z,101894.09
2023-01-22T06:52:31.144Z,101896.72
2023-01-22T06:55:02.989Z,101900.54
2023-01-22T06:57:34.949Z,101904.93
2023-01-22T07:00:08.656Z,101907.25
2023-01-22T07:02:41.381Z,101910.12
2023-01-22T07:05:13.492Z,101918.11
2023-01-22T07:07:46.825Z,101919.28
2023-01-22T07:10:19.212Z,101924.20
2023-01-22T07:12:55.279Z,101929.67
2023-01-22T07:15:27.698Z,101934.69
2023-01-22T07:17:59.685Z,101939.98
2023-01-22T07:20:31.458Z,101943.23
2023-01-22T07:23:03.515Z,101945.76
2023-01-22T07:25:35.452Z,101945.09
2023-01-22T07:28:08.453Z,101944.50
2023-01-22T07:30:40.734Z,101943.95
2023-01-22T07:33:13.517Z,101943.53
2023-01-22T07:35:45.421Z,101946.83
2023-01-22T07:38:17.271Z,101949.80
2023-01-22T07:40:49.072Z,101956.11
2023-01-22T07:43:21.461Z,101960.64
2023-01-22T07:45:54.119Z,101960.21
2023-01-22T07:48:26.050Z,101968.76
2023-01-22T07:51:01.732Z,101969.83
2023-01-22T07:53:34.254Z,101974.36
2023-01-22T07:56:07.311Z,101972.98
2023-01-22T07:58:40.289Z,101974.17
2023-01-22T08:01:12.246Z,101977.92
2023-01-22T08:03:44.053Z,101980.38
2023-01-22T08:06:20.697Z,101984.77
2023-01-22T08:08:52.887Z,101984.15
2023-01-22T08:11:24.727Z,101986.81
2023-01-22T08:13:56.923Z,101982.48
2023-01-22T08:16:28.977Z,101984.27
2023-01-22T08:19:01.034Z,101988.34
2023-01-22T08:21:33.426Z,101984.58
2023-01-22T08:24:05.664Z,101991.81
2023-01-22T08:26:37.745Z,101985.38
2023-01-22T08:29:09.850Z,101983.95
2023-01-22T08:31:42.075Z,101992.24
2023-01-22T08:34:14.124Z,101991.60
2023-01-22T08:36:46.176Z,101997.66
2023-01-22T08:39:17.962Z,102003.17
2023-01-22T08:41:49.895Z,102003.04
2023-01-22T08:44:21.703Z,102009.52
2023-01-22T08:46:53.938Z,102013.39
2023-01-22T08:49:26.638Z,102015.34
2023-01-22T08:51:58.942Z,102016.42
2023-01-22T08:54:30.790Z,102016.68
2023-01-22T08:57:03.180Z,102014.83
2023-01-22T08:59:35.000Z,102016.20
2023-01-22T09:02:07.144Z,102014.77
2023-01-22T09:04:40.492Z,102019.53
2023-01-22T09:07:12.753Z,102024.96
2023-01-22T09:09:44.617Z,102020.43
2023-01-22T09:12:16.606Z,102026.47
2023-01-22T09:14:48.525Z,102025.70
2023-01-22T09:17:20.498Z,102032.01
2023-01-22T09:19:52.479Z,102038.45
2023-01-22T09:22:24.690Z,102035.09
2023-01-22T09:24:56.680Z,102035.73
2023-01-22T09:27:28.752Z,102041.44
2023-01-22T09:30:01.281Z,102038.79
2023-01-22T09:32:33.598Z,102044.26
2023-01-22T09:35:08.819Z,102046.10
2023-01-22T09:37:43.260Z,102044.52
2023-01-22T09:40:24.663Z,102047.81
2023-01-22T09:43:03.699Z,102046.60
2023-01-22T09:45:38.516Z,102044.50
2023-01-22T09:48:13.973Z,102049.75
2023-01-22T09:50:46.958Z,102047.23
2023-01-22T09:53:20.865Z,102045.88
2023-01-22T09:55:54.395Z,102043.30
2023-01-22T09:58:27.244Z,102043.70
2023-01-22T10:01:01.509Z,102044.99
2023-01-22T10:03:37.374Z,102045.27
2023-01-22T10:06:12.789Z,102048.36
2023-01-22T10:08:51.709Z,102052.20
2023-01-22T10:11:23.698Z,102061.95
2023-01-22T10:13:57.461Z,102064.11
2023-01-22T10:16:29.638Z,102060.61
2023-01-22T10:19:04.509Z,102063.52
2023-01-22T10:21:38.779Z,102058.86
2023-01-22T10:24:12.445Z,102059.27
2023-01-22T10:26:46.603Z,102058.42
2023-01-22T10:29:25.505Z,102055.91
2023-01-22T10:31:59.217Z,102057.38
2023-01-22T10:34:33.347Z,102045.15
2023-01-22T10:37:13.603Z,102047.17
2023-01-22T10:39:47.534Z,102046.95
2023-01-22T10:42:21.211Z,102040.80
2023-01-22T10:44:58.189Z,102041.19
2023-01-22T10:47:30.145Z,102042.04
2023-01-22T10:50:07.467Z,102041.83
2023-01-22T10:52:42.699Z,102038.65
2023-01-22T10:55:24.093Z,102039.95
2023-01-22T10:57:59.531Z,102041.04
2023-01-22T11:00:50.229Z,102032.96
2023-01-22T11:03:24.151Z,102036.76
2023-01-22T11:05:58.917Z,102032.91
2023-01-22T11:08:35.869Z,102031.55
2023-01-22T11:11:10.989Z,102032.75
2023-01-22T11:13:49.250Z,102036.70
2023-01-22T11:16:23.247Z,102036.72
2023-01-22T11:19:01.145Z,102037.96
2023-01-22T11:21:37.113Z,102038.96
2023-01-22T11:24:14.801Z,102040.02
2023-01-22T11:27:00.256Z,102040.08
2023-01-22T11:29:58.677Z,102038.64
2023-01-22T11:32:46.528Z,102041.73
2023-01-22T11:35:24.184Z,102039.63
2023-01-22T11:38:06.021Z,102038.69
2023-01-22T11:40:40.433Z,102035.98
2023-01-22T11:43:30.055Z,102030.09
2023-01-22T11:46:17.526Z,102029.55
2023-01-22T11:48:59.090Z,102025.03
2023-01-22T11:51:37.013Z,102020.11
2023-01-22T11:54:33.073Z,102020.69
2023-01-22T11:57:13.370Z,102021.76
2023-01-22T12:00:14.364Z,102023.85
2023-01-22T12:03:05.254Z,102025.12
2023-01-22T12:05:43.749Z,102026.88
2023-01-22T12:08:27.177Z,102023.67
2023-01-22T12:11:28.864Z,102023.90
2023-01-22T12:14:15.446Z,102024.83
2023-01-22T12:16:55.846Z,102025.67
2023-01-22T12:19:57.133Z,102028.75
2023-01-22T12:22:31.887Z,102028.27
2023-01-22T12:25:14.260Z,102030.55
2023-01-22T12:27:50.872Z,102027.27
2023-01-22T12:30:29.900Z,102030.20
2023-01-22T12:33:05.276Z,102030.71
2023-01-22T12:35:37.222Z,102037.59
2023-01-22T12:38:17.341Z,102035.02
2023-01-22T12:41:07.522Z,102032.79
2023-01-22T12:43:41.869Z,102034.98
2023-01-22T12:46:19.481Z,102039.76
2023-01-22T12:48:56.077Z,102040.96
2023-01-22T12:51:38.889Z,102040.55
2023-01-22T12:54:21.432Z,102038.73
2023-01-22T12:56:56.746Z,102042.20
2023-01-22T12:59:44.407Z,102042.07
2023-01-22T13:02:39.390Z,102046.30
2023-01-22T13:05:21.334Z,102048.14
2023-01-22T13:08:05.409Z,102045.52
2023-01-22T13:10:38.324Z,102047.21
2023-01-22T13:13:21.623Z,102049.91
2023-01-22T13:15:56.961Z,102052.14
2023-01-22T13:18:31.970Z,102057.34
2023-01-22T13:21:05.761Z,102058.43
2023-01-22T13:23:41.800Z,102061.83
2023-01-22T13:26:20.277Z,102063.09
2023-01-22T13:28:54.831Z,102066.38
2023-01-22T13:31:27.153Z,102066.02
2023-01-22T13:34:08.919Z,102065.27
2023-01-22T13:36:46.254Z,102061.88
2023-01-22T13:39:21.498Z,102060.47
2023-01-22T13:41:55.110Z,102061.38
2023-01-22T13:44:28.581Z,102058.60
2023-01-22T13:47:00.717Z,102059.79
2023-01-22T13:49:33.671Z,102059.24
2023-01-22T13:52:08.379Z,102060.98
2023-01-22T13:54:43.952Z,102059.13
2023-01-22T13:57:17.880Z,102062.39
2023-01-22T13:59:54.966Z,102065.91
2023-01-22T14:02:30.699Z,102069.99
2023-01-22T14:05:02.731Z,102068.80
2023-01-22T14:07:38.109Z,102070.69
2023-01-22T14:10:18.636Z,102076.21
2023-01-22T14:13:01.396Z,102080.06
2023-01-22T14:15:33.547Z,102086.06
2023-01-22T14:18:13.536Z,102088.98
2023-01-22T14:20:46.845Z,102092.90
2023-01-22T14:23:18.884Z,102096.09
2023-01-22T14:25:52.738Z,102098.61
2023-01-22T14:28:26.754Z,102100.70
2023-01-22T14:30:59.297Z,102098.38
2023-01-22T14:33:33.591Z,102100.16
2023-01-22T14:36:05.800Z,102107.42
2023-01-22T14:38:38.051Z,102113.27
2023-01-22T14:41:10.796Z,102111.59
2023-01-22T14:43:43.192Z,102112.93
2023-01-22T14:46:15.270Z,102112.41
2023-01-22T14:48:47.399Z,102114.45
2023-01-22T14:51:19.227Z,102118.72
2023-01-22T14:53:51.306Z,102121.83
2023-01-22T14:56:23.310Z,102128.98
2023-01-22T14:58:55.530Z,102130.55
2023-01-22T15:01:27.336Z,102132.09
2023-01-22T15:04:01.534Z,102137.58
2023-01-22T15:06:34.143Z,102138.29
2023-01-22T15:09:06.218Z,102140.90
2023-01-22T15:11:37.996Z,102144.48
2023-01-22T15:14:10.303Z,102147.30
2023-01-22T15:16:43.645Z,102153.23
2023-01-22T15:19:18.520Z,102152.92
2023-01-22T15:21:51.025Z,102157.31
2023-01-22T15:24:24.759Z,102157.39
2023-01-22T15:26:58.490Z,102150.34
2023-01-22T15:29:31.104Z,102152.49
2023-01-22T15:32:02.918Z,102155.08
2023-01-22T15:34:34.675Z,102162.14
2023-01-22T15:37:06.592Z,102163.73
2023-01-22T15:39:38.585Z,102163.69
2023-01-22T15:42:10.413Z,102164.34
2023-01-22T15:44:42.281Z,102171.71
2023-01-22T15:47:14.641Z,102175.55
2023-01-22T15:49:46.900Z,102171.37
2023-01-22T15:52:19.207Z,102172.64
2023-01-22T15:54:51.256Z,102174.46
2023-01-22T15:57:23.106Z,102179.27
2023-01-22T15:59:55.081Z,102174.13
2023-01-22T16:02:30.378Z,102174.14
2023-01-22T16:05:02.310Z,102175.86
2023-01-22T16:07:34.373Z,102182.43
2023-01-22T16:10:06.949Z,102188.14
2023-01-22T16:12:39.239Z,102193.11
2023-01-22T16:15:12.922Z,102194.13
2023-01-22T16:17:44.968Z,102194.07
2023-01-22T16:20:17.677Z,102196.38
2023-01-22T16:22:49.863Z,102198.61
2023-01-22T16:25:22.185Z,102203.93
2023-01-22T16:27:54.118Z,102206.79
2023-01-22T16:30:26.245Z,102205.32
2023-01-22T16:32:58.294Z,102208.98
2023-01-22T16:35:30.264Z,102209.63
2023-01-22T16:38:02.345Z,102215.42
2023-01-22T16:40:34.357Z,102216.84
2023-01-22T16:43:07.758Z,102214.21
2023-01-22T16:45:39.606Z,102214.04
2023-01-22T16:48:11.416Z,102212.48
2023-01-22T16:50:44.963Z,102208.64
2023-01-22T16:53:17.185Z,102210.91
2023-01-22T16:55:49.198Z,102211.86
2023-01-22T16:58:21.038Z,102213.11
2023-01-22T17:00:53.856Z,102215.96
2023-01-22T17:03:25.716Z,102219.59
2023-01-22T17:05:58.164Z,102224.52
2023-01-22T17:08:30.387Z,102226.50
2023-01-22T17:11:02.397Z,102233.88
2023-01-22T17:13:34.320Z,102235.88
2023-01-22T17:16:08.950Z,102231.54
2023-01-22T17:18:41.315Z,102234.30
2023-01-22T17:21:15.472Z,102234.24
2023-01-22T17:23:46.197Z,102236.04
2023-01-22T17:26:18.785Z,102235.18
2023-01-22T17:28:50.925Z,102238.45
2023-01-22T17:31:24.222Z,102240.17
2023-01-22T17:33:57.346Z,102241.96
2023-01-22T17:36:29.487Z,102249.63
2023-01-22T17:39:01.838Z,102256.52
2023-01-22T17:41:33.819Z,102260.93
2023-01-22T17:44:05.993Z,102265.87
2023-01-22T17:46:38.004Z,102268.17
2023-01-22T17:49:11.383Z,102266.45
2023-01-22T17:51:43.424Z,102271.77
2023-01-22T17:54:15.767Z,102270.48
2023-01-22T17:56:49.129Z,102271.98
2023-01-22T17:59:21.385Z,102269.27
2023-01-22T18:01:53.374Z,102269.31
2023-01-22T18:04:25.419Z,102272.44
2023-01-22T18:06:57.556Z,102272.45
2023-01-22T18:09:29.528Z,102274.02
2023-01-22T18:12:03.009Z,102272.39
2023-01-22T18:14:35.382Z,102276.55
2023-01-22T18:17:07.645Z,102274.22
2023-01-22T18:19:39.679Z,102276.38
2023-01-22T18:22:11.921Z,102277.79
2023-01-22T18:24:44.442Z,102272.67
2023-01-22T18:27:16.727Z,102276.17
2023-01-22T18:29:48.735Z,102271.77
2023-01-22T18:32:21.814Z,102274.41
2023-01-22T18:34:53.869Z,102277.64
2023-01-22T18:37:25.931Z,102278.77
2023-01-22T18:39:57.704Z,102282.55
2023-01-22T18:42:29.872Z,102285.13
2023-01-22T18:45:01.732Z,102286.36
2023-01-22T18:47:34.840Z,102290.66
2023-01-22T18:50:10.264Z,102288.01
2023-01-22T18:52:44.317Z,102293.45
2023-01-22T18:55:17.623Z,102292.58
2023-01-22T18:57:53.640Z,102293.61
2023-01-22T19:00:26.265Z,102297.45
2023-01-22T19:02:58.888Z,102296.34
2023-01-22T19:05:31.588Z,102297.55
2023-01-22T19:08:03.695Z,102295.99
2023-01-22T19:10:35.693Z,102296.06
2023-01-22T19:13:07.740Z,102296.79
2023-01-22T19:15:39.605Z,102298.33
2023-01-22T19:18:11.588Z,102300.64
2023-01-22T19:20:43.857Z,102297.14
2023-01-22T19:23:15.948Z,102297.96
2023-01-22T19:25:49.245Z,102296.14
2023-01-22T19:28:21.428Z,102299.49
2023-01-22T19:30:53.302Z,102296.85
2023-01-22T19:33:27.920Z,102299.83
2023-01-22T19:36:00.276Z,102300.89
2023-01-22T19:38:32.236Z,102304.09
2023-01-22T19:41:04.916Z,102304.83
2023-01-22T19:43:37.066Z,102307.60
2023-01-22T19:46:11.269Z,102313.85
2023-01-22T19:48:44.294Z,102321.27
2023-01-22T19:51:17.837Z,102323.75
2023-01-22T19:53:50.731Z,102328.83
2023-01-22T19:56:24.676Z,102331.16
2023-01-22T19:59:00.814Z,102329.10
2023-01-22T20:01:32.848Z,102327.98
2023-01-22T20:04:08.958Z,102326.88
2023-01-22T20:06:41.347Z,102324.60
2023-01-22T20:09:13.366Z,102323.95
2023-01-22T20:11:45.700Z,102325.77
2023-01-22T20:14:17.707Z,102325.41
2023-01-22T20:16:49.910Z,102325.34
2023-01-22T20:19:21.721Z,102326.73
2023-01-22T20:21:53.718Z,102326.33
2023-01-22T20:24:25.697Z,102325.39
2023-01-22T20:26:58.834Z,102329.98
2023-01-22T20:29:30.854Z,102330.34
2023-01-22T20:32:03.640Z,102328.34
2023-01-22T20:34:35.596Z,102329.05
2023-01-22T20:37:07.540Z,102332.90
2023-01-22T20:39:39.459Z,102337.83
2023-01-22T20:42:12.206Z,102342.58
2023-01-22T20:44:45.975Z,102345.80
2023-01-22T20:47:18.058Z,102343.27
2023-01-22T20:49:50.400Z,102346.95
2023-01-22T20:52:22.420Z,102348.77
2023-01-22T20:55:01.342Z,102348.94
2023-01-22T20:57:34.092Z,102345.95
2023-01-22T21:00:07.491Z,102350.75
2023-01-22T21:02:39.387Z,102348.19
2023-01-22T21:05:12.107Z,102353.96
2023-01-22T21:07:44.335Z,102357.58
2023-01-22T21:10:16.715Z,102357.58
2023-01-22T21:12:48.667Z,102361.56
2023-01-22T21:15:20.975Z,102366.35
2023-01-22T21:17:54.867Z,102370.80
2023-01-22T21:20:26.991Z,102373.42
2023-01-22T21:22:58.889Z,102372.13
2023-01-22T21:25:30.829Z,102371.75
2023-01-22T21:28:03.008Z,102370.64
2023-01-22T21:30:35.222Z,102371.42
2023-01-22T21:33:07.107Z,102368.25
2023-01-22T21:35:39.021Z,102374.42
2023-01-22T21:38:14.099Z,102377.97
2023-01-22T21:40:45.906Z,102375.14
2023-01-22T21:43:35.690Z,102375.02
2023-01-22T21:46:26.265Z,102369.04
2023-01-22T21:49:01.340Z,102371.17
2023-01-22T21:51:33.838Z,102372.02
2023-01-22T21:54:05.850Z,102372.63
2023-01-22T21:56:37.941Z,102368.55
2023-01-22T21:59:09.868Z,102370.02
2023-01-22T22:01:41.849Z,102374.27
2023-01-22T22:04:15.179Z,102368.88
2023-01-22T22:06:47.509Z,102375.01
2023-01-22T22:09:22.034Z,102372.81
2023-01-22T22:11:57.898Z,102374.73
2023-01-22T22:14:30.432Z,102378.19
2023-01-22T22:17:02.445Z,102379.64
2023-01-22T22:19:34.524Z,102379.45
2023-01-22T22:22:06.634Z,102376.98
2023-01-22T22:24:38.575Z,102379.49
2023-01-22T22:27:10.589Z,102381.20
2023-01-22T22:29:42.468Z,102380.31
2023-01-22T22:32:14.638Z,102375.36
2023-01-22T22:34:46.525Z,102382.02
2023-01-22T22:37:18.296Z,102381.17
2023-01-22T22:39:50.158Z,102384.19
2023-01-22T22:42:21.940Z,102383.95
2023-01-22T22:44:53.745Z,102385.96
2023-01-22T22:47:25.577Z,102389.38
2023-01-22T22:49:57.580Z,102393.16
2023-01-22T22:52:31.069Z,102400.84
2023-01-22T22:55:03.013Z,102401.88
2023-01-22T22:57:34.926Z,102405.55
2023-01-22T23:00:09.824Z,102409.42
2023-01-22T23:02:42.754Z,102411.95
2023-01-22T23:05:14.602Z,102416.64
2023-01-22T23:07:46.446Z,102417.77
2023-01-22T23:10:29.744Z,102417.48
2023-01-22T23:13:03.455Z,102418.38
2023-01-22T23:15:36.165Z,102426.80
2023-01-22T23:18:08.149Z,102427.63
2023-01-22T23:20:39.927Z,102431.73
2023-01-22T23:23:11.754Z,102430.38
2023-01-22T23:25:46.510Z,102435.21
2023-01-22T23:28:18.356Z,102438.27
2023-01-22T23:30:50.710Z,102440.91
2023-01-22T23:33:23.083Z,102440.07
2023-01-22T23:35:56.993Z,102437.71
2023-01-22T23:38:28.856Z,102439.55
2023-01-22T23:41:01.413Z,102437.96
2023-01-22T23:43:33.693Z,102437.89
2023-01-22T23:46:09.987Z,102438.29
2023-01-22T23:48:41.943Z,102437.77
2023-01-22T23:51:15.437Z,102439.54
2023-01-22T23:53:48.832Z,102442.38
2023-01-22T23:56:21.879Z,102445.98
2023-01-22T23:58:55.894Z,102440.27
